Elkwood, Virginia
Current Conditions -  °F | °C
As of 11:35 AM on Tuesday 21 Oct 2014 (Local Time) from KCJR Reporting Station
Clear Clear  
Wind Chill: 68°   Ceiling: Unl
Heat Index: 68°   Visibility: 10mi
Dew Point: 48°   Wind: 0mph
Humidity: 49%   Direction: NA
Pressure: 29.88"   Gusts: NA
Location:  38.51°N, 77.86°W
Report Text: KCJR 211535Z AUTO 00000KT 10SM CLR 20/09 A2988 RMK AO2
Loading
Personal Weather Stations






























Interactive Weather Map
Tropical Storm Tracking
New forecast layout! Learn more

10-Day Weather Forecast

Advertisements
Track Severe Weather on mobile